sensor_id;sensor_type;location;lat;lon;timestamp;temperature;humidity
29731;DHT22;16639;51.488;0.152;2023-03-01T00:02:17;6.40;99.90
29731;DHT22;16639;51.488;0.152;2023-03-01T00:04:45;6.40;99.90
29731;DHT22;16639;51.488;0.152;2023-03-01T00:07:12;6.40;99.90
29731;DHT22;16639;51.488;0.152;2023-03-01T00:09:39;6.30;99.90
29731;DHT22;16639;51.488;0.152;2023-03-01T00:12:07;6.20;99.90
29731;DHT22;16639;51.488;0.152;2023-03-01T00:14:35;6.20;99.90
29731;DHT22;16639;51.488;0.152;2023-03-01T00:17:02;6.20;99.90
29731;DHT22;16639;51.488;0.152;2023-03-01T00:19:30;6.20;99.90
29731;DHT22;16639;51.488;0.152;2023-03-01T00:21:59;6.20;99.90
29731;DHT22;16639;51.488;0.152;2023-03-01T00:24:26;6.10;99.90
29731;DHT22;16639;51.488;0.152;2023-03-01T00:26:54;6.00;99.90
29731;DHT22;16639;51.488;0.152;2023-03-01T00:29:24;6.00;99.90
29731;DHT22;16639;51.488;0.152;2023-03-01T00:31:52;6.00;99.90
29731;DHT22;16639;51.488;0.152;2023-03-01T00:34:19;6.00;99.90
29731;DHT22;16639;51.488;0.152;2023-03-01T00:36:46;5.90;99.90
29731;DHT22;16639;51.488;0.152;2023-03-01T00:39:14;6.00;99.90
29731;DHT22;16639;51.488;0.152;2023-03-01T00:41:42;6.00;99.90
29731;DHT22;16639;51.488;0.152;2023-03-01T00:44:10;6.00;99.90
29731;DHT22;16639;51.488;0.152;2023-03-01T00:46:38;6.10;99.90
29731;DHT22;16639;51.488;0.152;2023-03-01T00:49:05;6.10;99.90
29731;DHT22;16639;51.488;0.152;2023-03-01T00:51:33;6.20;99.90
29731;DHT22;16639;51.488;0.152;2023-03-01T00:54:02;6.10;99.90
29731;DHT22;16639;51.488;0.152;2023-03-01T00:56:30;5.70;99.90
29731;DHT22;16639;51.488;0.152;2023-03-01T00:58:58;6.10;99.90
29731;DHT22;16639;51.488;0.152;2023-03-01T01:01:29;6.10;99.90
29731;DHT22;16639;51.488;0.152;2023-03-01T01:03:58;6.40;99.90
29731;DHT22;16639;51.488;0.152;2023-03-01T01:06:31;5.90;99.90
29731;DHT22;16639;51.488;0.152;2023-03-01T01:09:00;5.90;99.90
29731;DHT22;16639;51.488;0.152;2023-03-01T01:11:29;6.00;99.90
29731;DHT22;16639;51.488;0.152;2023-03-01T01:13:57;6.50;99.90
29731;DHT22;16639;51.488;0.152;2023-03-01T01:16:26;5.90;99.90
29731;DHT22;16639;51.488;0.152;2023-03-01T01:18:54;6.00;99.90
29731;DHT22;16639;51.488;0.152;2023-03-01T01:21:23;6.00;99.90
29731;DHT22;16639;51.488;0.152;2023-03-01T01:23:51;6.10;99.90
29731;DHT22;16639;51.488;0.152;2023-03-01T01:28:48;6.10;99.90
29731;DHT22;16639;51.488;0.152;2023-03-01T01:31:16;6.20;99.90
29731;DHT22;16639;51.488;0.152;2023-03-01T01:33:44;6.10;99.90
29731;DHT22;16639;51.488;0.152;2023-03-01T01:36:11;6.10;99.90
29731;DHT22;16639;51.488;0.152;2023-03-01T01:38:39;6.10;99.90
29731;DHT22;16639;51.488;0.152;2023-03-01T01:41:06;6.10;99.90
29731;DHT22;16639;51.488;0.152;2023-03-01T01:43:37;6.10;99.90
29731;DHT22;16639;51.488;0.152;2023-03-01T01:46:15;6.10;99.90
29731;DHT22;16639;51.488;0.152;2023-03-01T01:48:47;6.00;99.90
29731;DHT22;16639;51.488;0.152;2023-03-01T01:51:19;6.10;99.90
29731;DHT22;16639;51.488;0.152;2023-03-01T01:53:53;6.10;99.90
29731;DHT22;16639;51.488;0.152;2023-03-01T01:56:24;6.00;99.90
29731;DHT22;16639;51.488;0.152;2023-03-01T01:58:52;6.00;99.90
29731;DHT22;16639;51.488;0.152;2023-03-01T02:01:20;6.00;99.90
29731;DHT22;16639;51.488;0.152;2023-03-01T02:03:48;6.00;99.90
29731;DHT22;16639;51.488;0.152;2023-03-01T02:06:28;6.00;99.90
29731;DHT22;16639;51.488;0.152;2023-03-01T02:09:00;6.00;99.90
29731;DHT22;16639;51.488;0.152;2023-03-01T02:11:30;6.00;99.90
29731;DHT22;16639;51.488;0.152;2023-03-01T02:13:58;6.10;99.90
29731;DHT22;16639;51.488;0.152;2023-03-01T02:16:26;6.10;99.90
29731;DHT22;16639;51.488;0.152;2023-03-01T02:18:54;6.10;99.90
29731;DHT22;16639;51.488;0.152;2023-03-01T02:24:15;6.10;99.90
29731;DHT22;16639;51.488;0.152;2023-03-01T02:26:49;6.10;99.90
29731;DHT22;16639;51.488;0.152;2023-03-01T02:29:18;6.10;99.90
29731;DHT22;16639;51.488;0.152;2023-03-01T02:31:46;6.10;99.90
29731;DHT22;16639;51.488;0.152;2023-03-01T02:34:16;6.10;99.90
29731;DHT22;16639;51.488;0.152;2023-03-01T02:36:49;6.10;99.90
29731;DHT22;16639;51.488;0.152;2023-03-01T02:39:23;5.30;99.90
29731;DHT22;16639;51.488;0.152;2023-03-01T02:41:54;6.10;99.90
29731;DHT22;16639;51.488;0.152;2023-03-01T02:44:23;6.10;99.90
29731;DHT22;16639;51.488;0.152;2023-03-01T02:46:53;6.10;99.90
29731;DHT22;16639;51.488;0.152;2023-03-01T02:49:32;6.20;99.90
29731;DHT22;16639;51.488;0.152;2023-03-01T02:57:11;6.00;99.90
29731;DHT22;16639;51.488;0.152;2023-03-01T02:59:39;6.00;99.90
29731;DHT22;16639;51.488;0.152;2023-03-01T03:02:29;6.00;99.90
29731;DHT22;16639;51.488;0.152;2023-03-01T03:07:37;6.00;99.90
29731;DHT22;16639;51.488;0.152;2023-03-01T03:10:06;6.00;99.90
29731;DHT22;16639;51.488;0.152;2023-03-01T03:12:34;6.00;99.90
29731;DHT22;16639;51.488;0.152;2023-03-01T03:15:01;6.10;99.90
29731;DHT22;16639;51.488;0.152;2023-03-01T03:17:37;6.10;99.90
29731;DHT22;16639;51.488;0.152;2023-03-01T03:20:06;6.10;99.90
29731;DHT22;16639;51.488;0.152;2023-03-01T03:22:39;5.10;99.90
29731;DHT22;16639;51.488;0.152;2023-03-01T03:25:07;6.10;99.90
29731;DHT22;16639;51.488;0.152;2023-03-01T03:27:38;6.10;99.90
29731;DHT22;16639;51.488;0.152;2023-03-01T03:30:08;4.80;99.90
29731;DHT22;16639;51.488;0.152;2023-03-01T03:32:36;6.10;99.90
29731;DHT22;16639;51.488;0.152;2023-03-01T03:35:04;6.10;99.90
29731;DHT22;16639;51.488;0.152;2023-03-01T03:37:40;6.10;99.90
29731;DHT22;16639;51.488;0.152;2023-03-01T03:40:26;6.10;99.90
29731;DHT22;16639;51.488;0.152;2023-03-01T03:42:54;6.10;99.90
29731;DHT22;16639;51.488;0.152;2023-03-01T03:45:21;6.00;99.90
29731;DHT22;16639;51.488;0.152;2023-03-01T03:47:49;6.00;99.90
29731;DHT22;16639;51.488;0.152;2023-03-01T03:50:17;6.00;99.90
29731;DHT22;16639;51.488;0.152;2023-03-01T03:52:45;6.00;99.90
29731;DHT22;16639;51.488;0.152;2023-03-01T03:55:12;6.00;99.90
29731;DHT22;16639;51.488;0.152;2023-03-01T03:57:40;6.00;99.90
29731;DHT22;16639;51.488;0.152;2023-03-01T04:00:11;6.10;99.90
29731;DHT22;16639;51.488;0.152;2023-03-01T04:02:43;6.00;99.90
29731;DHT22;16639;51.488;0.152;2023-03-01T04:05:12;6.00;99.90
29731;DHT22;16639;51.488;0.152;2023-03-01T04:07:40;6.00;99.90
29731;DHT22;16639;51.488;0.152;2023-03-01T04:10:19;6.00;99.90
29731;DHT22;16639;51.488;0.152;2023-03-01T04:12:46;6.00;99.90
29731;DHT22;16639;51.488;0.152;2023-03-01T04:15:13;5.90;99.90
29731;DHT22;16639;51.488;0.152;2023-03-01T04:17:42;6.00;99.90
29731;DHT22;16639;51.488;0.152;2023-03-01T04:20:16;6.00;99.90
29731;DHT22;16639;51.488;0.152;2023-03-01T04:22:56;6.00;99.90
29731;DHT22;16639;51.488;0.152;2023-03-01T04:25:24;6.00;99.90
29731;DHT22;16639;51.488;0.152;2023-03-01T04:27:52;6.00;99.90
29731;DHT22;16639;51.488;0.152;2023-03-01T04:30:19;6.00;99.90
29731;DHT22;16639;51.488;0.152;2023-03-01T04:32:47;6.00;99.90
29731;DHT22;16639;51.488;0.152;2023-03-01T04:35:14;6.00;99.90
29731;DHT22;16639;51.488;0.152;2023-03-01T04:37:41;6.00;99.90
29731;DHT22;16639;51.488;0.152;2023-03-01T04:40:09;6.00;99.90
29731;DHT22;16639;51.488;0.152;2023-03-01T04:42:39;5.90;99.90
29731;DHT22;16639;51.488;0.152;2023-03-01T04:45:07;5.90;99.90
29731;DHT22;16639;51.488;0.152;2023-03-01T04:47:41;5.90;99.90
29731;DHT22;16639;51.488;0.152;2023-03-01T04:50:17;6.40;99.90
29731;DHT22;16639;51.488;0.152;2023-03-01T04:52:47;5.90;99.90
29731;DHT22;16639;51.488;0.152;2023-03-01T04:55:14;5.90;99.90
29731;DHT22;16639;51.488;0.152;2023-03-01T04:57:42;5.90;99.90
29731;DHT22;16639;51.488;0.152;2023-03-01T05:00:13;5.90;99.90
29731;DHT22;16639;51.488;0.152;2023-03-01T05:02:55;5.80;99.90
29731;DHT22;16639;51.488;0.152;2023-03-01T05:05:26;5.80;99.90
29731;DHT22;16639;51.488;0.152;2023-03-01T05:07:58;5.70;99.90
29731;DHT22;16639;51.488;0.152;2023-03-01T05:10:27;5.80;99.90
29731;DHT22;16639;51.488;0.152;2023-03-01T05:12:56;5.80;99.90
29731;DHT22;16639;51.488;0.152;2023-03-01T05:15:25;5.80;99.90
29731;DHT22;16639;51.488;0.152;2023-03-01T05:17:55;5.80;99.90
29731;DHT22;16639;51.488;0.152;2023-03-01T05:20:29;5.80;99.90
29731;DHT22;16639;51.488;0.152;2023-03-01T05:22:58;5.80;99.90
29731;DHT22;16639;51.488;0.152;2023-03-01T05:25:27;5.80;99.90
29731;DHT22;16639;51.488;0.152;2023-03-01T05:27:54;5.80;99.90
29731;DHT22;16639;51.488;0.152;2023-03-01T05:30:21;5.80;99.90
29731;DHT22;16639;51.488;0.152;2023-03-01T05:32:50;5.80;99.90
29731;DHT22;16639;51.488;0.152;2023-03-01T05:35:23;5.80;99.90
29731;DHT22;16639;51.488;0.152;2023-03-01T05:37:51;6.50;99.90
29731;DHT22;16639;51.488;0.152;2023-03-01T05:40:22;5.80;99.90
29731;DHT22;16639;51.488;0.152;2023-03-01T05:42:54;5.90;99.90
29731;DHT22;16639;51.488;0.152;2023-03-01T05:45:23;5.90;99.90
29731;DHT22;16639;51.488;0.152;2023-03-01T05:47:51;5.80;99.90
29731;DHT22;16639;51.488;0.152;2023-03-01T05:50:25;5.80;99.90
29731;DHT22;16639;51.488;0.152;2023-03-01T05:53:04;5.80;99.90
29731;DHT22;16639;51.488;0.152;2023-03-01T05:55:32;5.80;99.90
29731;DHT22;16639;51.488;0.152;2023-03-01T05:58:05;5.80;99.90
29731;DHT22;16639;51.488;0.152;2023-03-01T06:00:33;5.80;99.90
29731;DHT22;16639;51.488;0.152;2023-03-01T06:03:01;5.80;99.90
29731;DHT22;16639;51.488;0.152;2023-03-01T06:05:29;5.80;99.90
29731;DHT22;16639;51.488;0.152;2023-03-01T06:07:59;5.80;99.90
29731;DHT22;16639;51.488;0.152;2023-03-01T06:10:26;5.90;99.90
29731;DHT22;16639;51.488;0.152;2023-03-01T06:12:54;5.90;99.90
29731;DHT22;16639;51.488;0.152;2023-03-01T06:15:22;5.90;99.90
29731;DHT22;16639;51.488;0.152;2023-03-01T06:17:50;5.90;99.90
29731;DHT22;16639;51.488;0.152;2023-03-01T06:20:20;5.80;99.90
29731;DHT22;16639;51.488;0.152;2023-03-01T06:22:48;5.80;99.90
29731;DHT22;16639;51.488;0.152;2023-03-01T06:25:19;5.90;99.90
29731;DHT22;16639;51.488;0.152;2023-03-01T06:27:47;5.80;99.90
29731;DHT22;16639;51.488;0.152;2023-03-01T06:30:17;5.70;99.90
29731;DHT22;16639;51.488;0.152;2023-03-01T06:32:45;5.70;99.90
29731;DHT22;16639;51.488;0.152;2023-03-01T06:35:14;5.80;99.90
29731;DHT22;16639;51.488;0.152;2023-03-01T06:37:45;5.80;99.90
29731;DHT22;16639;51.488;0.152;2023-03-01T06:40:13;5.80;99.90
29731;DHT22;16639;51.488;0.152;2023-03-01T06:42:42;5.80;99.90
29731;DHT22;16639;51.488;0.152;2023-03-01T06:45:10;5.80;99.90
29731;DHT22;16639;51.488;0.152;2023-03-01T06:47:37;5.80;99.90
29731;DHT22;16639;51.488;0.152;2023-03-01T06:50:05;5.80;99.90
29731;DHT22;16639;51.488;0.152;2023-03-01T06:52:33;5.70;99.90
29731;DHT22;16639;51.488;0.152;2023-03-01T06:55:01;5.80;99.90
29731;DHT22;16639;51.488;0.152;2023-03-01T06:57:28;5.70;99.90
29731;DHT22;16639;51.488;0.152;2023-03-01T06:59:56;6.80;99.90
29731;DHT22;16639;51.488;0.152;2023-03-01T07:02:24;5.70;99.90
29731;DHT22;16639;51.488;0.152;2023-03-01T07:04:52;5.80;99.90
29731;DHT22;16639;51.488;0.152;2023-03-01T07:07:19;5.50;99.90
29731;DHT22;16639;51.488;0.152;2023-03-01T07:09:48;5.80;99.90
29731;DHT22;16639;51.488;0.152;2023-03-01T07:12:16;5.70;99.90
29731;DHT22;16639;51.488;0.152;2023-03-01T07:14:43;5.70;99.90
29731;DHT22;16639;51.488;0.152;2023-03-01T07:17:11;5.60;99.90
29731;DHT22;16639;51.488;0.152;2023-03-01T07:19:38;5.70;99.90
29731;DHT22;16639;51.488;0.152;2023-03-01T07:22:06;5.70;99.90
29731;DHT22;16639;51.488;0.152;2023-03-01T07:24:35;5.70;99.90
29731;DHT22;16639;51.488;0.152;2023-03-01T07:27:02;5.60;99.90
29731;DHT22;16639;51.488;0.152;2023-03-01T07:29:29;5.60;99.90
29731;DHT22;16639;51.488;0.152;2023-03-01T07:31:57;5.60;99.90
29731;DHT22;16639;51.488;0.152;2023-03-01T07:34:25;5.60;99.90
29731;DHT22;16639;51.488;0.152;2023-03-01T07:36:52;5.60;99.90
29731;DHT22;16639;51.488;0.152;2023-03-01T07:39:20;5.60;99.90
29731;DHT22;16639;51.488;0.152;2023-03-01T07:41:47;5.70;99.90
29731;DHT22;16639;51.488;0.152;2023-03-01T07:44:14;5.70;99.90
29731;DHT22;16639;51.488;0.152;2023-03-01T07:46:43;5.70;99.90
29731;DHT22;16639;51.488;0.152;2023-03-01T07:49:11;5.70;99.90
29731;DHT22;16639;51.488;0.152;2023-03-01T07:51:38;5.70;99.90
29731;DHT22;16639;51.488;0.152;2023-03-01T07:54:06;5.70;99.90
29731;DHT22;16639;51.488;0.152;2023-03-01T07:56:33;5.70;99.90
29731;DHT22;16639;51.488;0.152;2023-03-01T07:59:00;5.60;99.90
29731;DHT22;16639;51.488;0.152;2023-03-01T08:01:27;6.00;99.90
29731;DHT22;16639;51.488;0.152;2023-03-01T08:03:55;5.70;99.90
29731;DHT22;16639;51.488;0.152;2023-03-01T08:06:22;5.70;99.90
29731;DHT22;16639;51.488;0.152;2023-03-01T08:08:50;5.70;99.90
29731;DHT22;16639;51.488;0.152;2023-03-01T08:11:17;5.80;99.90
29731;DHT22;16639;51.488;0.152;2023-03-01T08:13:47;5.70;99.90
29731;DHT22;16639;51.488;0.152;2023-03-01T08:16:18;5.40;99.90
29731;DHT22;16639;51.488;0.152;2023-03-01T08:18:45;6.60;99.90
29731;DHT22;16639;51.488;0.152;2023-03-01T08:21:16;5.70;99.90
29731;DHT22;16639;51.488;0.152;2023-03-01T08:23:44;5.70;99.90
29731;DHT22;16639;51.488;0.152;2023-03-01T08:26:17;5.80;99.90
29731;DHT22;16639;51.488;0.152;2023-03-01T08:28:46;5.80;99.90
29731;DHT22;16639;51.488;0.152;2023-03-01T08:33:49;5.90;99.90
29731;DHT22;16639;51.488;0.152;2023-03-01T08:36:18;6.00;99.90
29731;DHT22;16639;51.488;0.152;2023-03-01T08:38:46;6.00;99.90
29731;DHT22;16639;51.488;0.152;2023-03-01T08:41:14;6.10;99.90
29731;DHT22;16639;51.488;0.152;2023-03-01T08:43:41;6.20;99.90
29731;DHT22;16639;51.488;0.152;2023-03-01T08:46:09;6.10;99.90
29731;DHT22;16639;51.488;0.152;2023-03-01T08:48:37;6.20;99.90
29731;DHT22;16639;51.488;0.152;2023-03-01T08:51:14;6.20;99.90
29731;DHT22;16639;51.488;0.152;2023-03-01T08:53:42;6.20;99.90
29731;DHT22;16639;51.488;0.152;2023-03-01T08:56:10;6.30;99.90
29731;DHT22;16639;51.488;0.152;2023-03-01T08:58:38;6.30;99.90
29731;DHT22;16639;51.488;0.152;2023-03-01T09:01:08;6.40;99.90
29731;DHT22;16639;51.488;0.152;2023-03-01T09:03:36;6.40;99.90
29731;DHT22;16639;51.488;0.152;2023-03-01T09:06:05;6.50;99.90
29731;DHT22;16639;51.488;0.152;2023-03-01T09:08:41;6.40;99.90
29731;DHT22;16639;51.488;0.152;2023-03-01T09:11:11;6.50;99.90
29731;DHT22;16639;51.488;0.152;2023-03-01T09:13:39;6.60;99.90
29731;DHT22;16639;51.488;0.152;2023-03-01T09:16:11;6.60;99.90
29731;DHT22;16639;51.488;0.152;2023-03-01T09:18:38;7.80;99.90
29731;DHT22;16639;51.488;0.152;2023-03-01T09:21:14;6.80;99.90
29731;DHT22;16639;51.488;0.152;2023-03-01T09:23:46;6.80;99.90
29731;DHT22;16639;51.488;0.152;2023-03-01T09:26:19;6.80;99.90
29731;DHT22;16639;51.488;0.152;2023-03-01T09:28:50;6.90;99.90
29731;DHT22;16639;51.488;0.152;2023-03-01T09:31:19;6.90;99.90
29731;DHT22;16639;51.488;0.152;2023-03-01T09:33:48;6.80;99.90
29731;DHT22;16639;51.488;0.152;2023-03-01T09:36:21;6.70;99.90
29731;DHT22;16639;51.488;0.152;2023-03-01T09:38:50;7.60;99.90
29731;DHT22;16639;51.488;0.152;2023-03-01T09:43:48;6.70;99.90
29731;DHT22;16639;51.488;0.152;2023-03-01T09:46:23;6.80;99.90
29731;DHT22;16639;51.488;0.152;2023-03-01T09:49:01;6.80;99.90
29731;DHT22;16639;51.488;0.152;2023-03-01T09:51:32;6.50;99.90
29731;DHT22;16639;51.488;0.152;2023-03-01T09:54:05;6.70;99.90
29731;DHT22;16639;51.488;0.152;2023-03-01T09:56:42;6.70;99.90
29731;DHT22;16639;51.488;0.152;2023-03-01T10:04:47;6.70;99.90
29731;DHT22;16639;51.488;0.152;2023-03-01T10:10:10;6.80;99.90
29731;DHT22;16639;51.488;0.152;2023-03-01T10:12:43;6.70;99.90
29731;DHT22;16639;51.488;0.152;2023-03-01T10:15:16;6.80;99.90
29731;DHT22;16639;51.488;0.152;2023-03-01T10:18:04;6.80;99.90
29731;DHT22;16639;51.488;0.152;2023-03-01T10:21:01;6.90;99.90
29731;DHT22;16639;51.488;0.152;2023-03-01T10:23:32;7.10;99.90
29731;DHT22;16639;51.488;0.152;2023-03-01T10:31:03;7.20;99.90
29731;DHT22;16639;51.488;0.152;2023-03-01T10:33:33;7.30;99.90
29731;DHT22;16639;51.488;0.152;2023-03-01T10:36:02;7.30;99.90
29731;DHT22;16639;51.488;0.152;2023-03-01T10:38:46;7.30;99.90
29731;DHT22;16639;51.488;0.152;2023-03-01T10:41:14;7.30;99.90
29731;DHT22;16639;51.488;0.152;2023-03-01T10:49:10;7.20;99.90
29731;DHT22;16639;51.488;0.152;2023-03-01T10:51:44;7.30;99.90
29731;DHT22;16639;51.488;0.152;2023-03-01T10:54:32;7.80;99.90
29731;DHT22;16639;51.488;0.152;2023-03-01T10:57:03;7.40;99.90
29731;DHT22;16639;51.488;0.152;2023-03-01T10:59:33;7.40;99.90
29731;DHT22;16639;51.488;0.152;2023-03-01T11:02:36;7.40;99.90
29731;DHT22;16639;51.488;0.152;2023-03-01T11:05:16;7.40;99.90
29731;DHT22;16639;51.488;0.152;2023-03-01T11:07:48;7.40;99.90
29731;DHT22;16639;51.488;0.152;2023-03-01T11:10:21;8.90;99.90
29731;DHT22;16639;51.488;0.152;2023-03-01T11:12:51;7.50;99.90
29731;DHT22;16639;51.488;0.152;2023-03-01T11:15:27;7.50;99.90
29731;DHT22;16639;51.488;0.152;2023-03-01T11:17:56;7.50;99.90
29731;DHT22;16639;51.488;0.152;2023-03-01T11:20:39;7.50;99.90
29731;DHT22;16639;51.488;0.152;2023-03-01T11:23:14;7.50;99.90
29731;DHT22;16639;51.488;0.152;2023-03-01T11:25:51;7.50;99.90
29731;DHT22;16639;51.488;0.152;2023-03-01T11:28:21;7.90;99.90
29731;DHT22;16639;51.488;0.152;2023-03-01T11:31:04;7.50;99.90
29731;DHT22;16639;51.488;0.152;2023-03-01T11:36:24;7.50;99.90
29731;DHT22;16639;51.488;0.152;2023-03-01T11:38:55;7.50;99.90
29731;DHT22;16639;51.488;0.152;2023-03-01T11:41:30;7.50;99.90
29731;DHT22;16639;51.488;0.152;2023-03-01T11:44:14;7.60;99.90
29731;DHT22;16639;51.488;0.152;2023-03-01T11:49:47;7.50;99.90
29731;DHT22;16639;51.488;0.152;2023-03-01T12:22:28;7.60;99.90
29731;DHT22;16639;51.488;0.152;2023-03-01T12:25:21;7.60;99.90
29731;DHT22;16639;51.488;0.152;2023-03-01T12:50:19;7.80;99.90
29731;DHT22;16639;51.488;0.152;2023-03-01T12:52:53;7.80;99.90
29731;DHT22;16639;51.488;0.152;2023-03-01T12:55:33;7.80;99.90
29731;DHT22;16639;51.488;0.152;2023-03-01T13:06:57;7.60;99.90
29731;DHT22;16639;51.488;0.152;2023-03-01T13:11:58;7.60;99.90
29731;DHT22;16639;51.488;0.152;2023-03-01T13:14:34;7.60;99.90
29731;DHT22;16639;51.488;0.152;2023-03-01T13:17:02;7.60;99.90
29731;DHT22;16639;51.488;0.152;2023-03-01T13:19:30;7.70;99.90
29731;DHT22;16639;51.488;0.152;2023-03-01T13:21:59;7.40;99.90
29731;DHT22;16639;51.488;0.152;2023-03-01T13:34:59;8.00;99.90
29731;DHT22;16639;51.488;0.152;2023-03-01T13:37:33;8.00;99.90
29731;DHT22;16639;51.488;0.152;2023-03-01T13:40:56;8.00;99.90
29731;DHT22;16639;51.488;0.152;2023-03-01T13:42:56;8.00;99.90
29731;DHT22;16639;51.488;0.152;2023-03-01T13:45:39;8.00;99.90
29731;DHT22;16639;51.488;0.152;2023-03-01T13:48:17;8.00;99.90
29731;DHT22;16639;51.488;0.152;2023-03-01T13:50:58;7.90;99.90
29731;DHT22;16639;51.488;0.152;2023-03-01T13:53:31;8.00;99.90
29731;DHT22;16639;51.488;0.152;2023-03-01T13:58:58;7.80;99.90
29731;DHT22;16639;51.488;0.152;2023-03-01T14:01:30;7.80;99.90
29731;DHT22;16639;51.488;0.152;2023-03-01T14:03:59;7.60;99.90
29731;DHT22;16639;51.488;0.152;2023-03-01T14:06:31;7.70;99.90
29731;DHT22;16639;51.488;0.152;2023-03-01T14:09:20;7.70;99.90
29731;DHT22;16639;51.488;0.152;2023-03-01T14:14:48;7.70;99.90
29731;DHT22;16639;51.488;0.152;2023-03-01T14:20:00;7.80;99.90
29731;DHT22;16639;51.488;0.152;2023-03-01T14:22:30;7.70;99.90
29731;DHT22;16639;51.488;0.152;2023-03-01T14:25:01;7.70;99.90
29731;DHT22;16639;51.488;0.152;2023-03-01T14:27:35;7.70;99.90
29731;DHT22;16639;51.488;0.152;2023-03-01T14:30:27;7.70;99.90
29731;DHT22;16639;51.488;0.152;2023-03-01T14:33:02;7.80;99.90
29731;DHT22;16639;51.488;0.152;2023-03-01T14:35:35;7.90;99.90
29731;DHT22;16639;51.488;0.152;2023-03-01T14:38:03;7.90;99.90
29731;DHT22;16639;51.488;0.152;2023-03-01T14:40:34;8.00;99.90
29731;DHT22;16639;51.488;0.152;2023-03-01T14:43:09;8.10;99.90
29731;DHT22;16639;51.488;0.152;2023-03-01T14:45:37;8.10;99.90
29731;DHT22;16639;51.488;0.152;2023-03-01T14:48:06;8.00;99.90
29731;DHT22;16639;51.488;0.152;2023-03-01T14:50:35;8.00;99.90
29731;DHT22;16639;51.488;0.152;2023-03-01T14:53:05;8.00;99.90
29731;DHT22;16639;51.488;0.152;2023-03-01T14:55:40;8.00;99.90
29731;DHT22;16639;51.488;0.152;2023-03-01T14:58:18;8.00;99.90
29731;DHT22;16639;51.488;0.152;2023-03-01T15:00:53;8.00;99.90
29731;DHT22;16639;51.488;0.152;2023-03-01T15:05:55;8.00;99.90
29731;DHT22;16639;51.488;0.152;2023-03-01T15:08:27;8.00;99.90
29731;DHT22;16639;51.488;0.152;2023-03-01T15:11:22;8.70;99.90
29731;DHT22;16639;51.488;0.152;2023-03-01T15:13:52;8.00;99.90
29731;DHT22;16639;51.488;0.152;2023-03-01T15:16:24;8.00;99.90
29731;DHT22;16639;51.488;0.152;2023-03-01T15:18:55;8.00;99.90
29731;DHT22;16639;51.488;0.152;2023-03-01T15:21:36;8.10;99.90
29731;DHT22;16639;51.488;0.152;2023-03-01T15:26:43;8.20;99.90
29731;DHT22;16639;51.488;0.152;2023-03-01T15:29:17;9.00;99.90
29731;DHT22;16639;51.488;0.152;2023-03-01T15:32:01;8.20;99.90
29731;DHT22;16639;51.488;0.152;2023-03-01T15:34:36;8.20;99.90
29731;DHT22;16639;51.488;0.152;2023-03-01T15:37:06;8.20;99.90
29731;DHT22;16639;51.488;0.152;2023-03-01T15:39:56;8.20;99.90
29731;DHT22;16639;51.488;0.152;2023-03-01T15:47:40;8.40;99.90
29731;DHT22;16639;51.488;0.152;2023-03-01T15:50:29;8.30;99.90
29731;DHT22;16639;51.488;0.152;2023-03-01T15:52:58;8.30;99.90
29731;DHT22;16639;51.488;0.152;2023-03-01T15:55:31;8.20;99.90
29731;DHT22;16639;51.488;0.152;2023-03-01T15:58:08;8.20;99.90
29731;DHT22;16639;51.488;0.152;2023-03-01T16:00:36;8.20;99.90
29731;DHT22;16639;51.488;0.152;2023-03-01T16:03:11;8.30;99.90
29731;DHT22;16639;51.488;0.152;2023-03-01T16:05:39;8.30;99.90
29731;DHT22;16639;51.488;0.152;2023-03-01T16:08:06;8.30;99.90
29731;DHT22;16639;51.488;0.152;2023-03-01T16:10:34;8.30;99.90
29731;DHT22;16639;51.488;0.152;2023-03-01T16:13:02;6.90;99.90
29731;DHT22;16639;51.488;0.152;2023-03-01T16:15:32;8.30;99.90
29731;DHT22;16639;51.488;0.152;2023-03-01T16:18:02;8.30;99.90
29731;DHT22;16639;51.488;0.152;2023-03-01T16:20:29;8.30;99.90
29731;DHT22;16639;51.488;0.152;2023-03-01T16:23:05;8.10;99.90
29731;DHT22;16639;51.488;0.152;2023-03-01T16:25:33;8.30;99.90
29731;DHT22;16639;51.488;0.152;2023-03-01T16:28:01;8.20;99.90
29731;DHT22;16639;51.488;0.152;2023-03-01T16:30:32;8.20;99.90
29731;DHT22;16639;51.488;0.152;2023-03-01T16:33:03;8.10;99.90
29731;DHT22;16639;51.488;0.152;2023-03-01T16:35:50;8.10;99.90
29731;DHT22;16639;51.488;0.152;2023-03-01T16:38:18;8.10;99.90
29731;DHT22;16639;51.488;0.152;2023-03-01T16:40:49;8.10;99.90
29731;DHT22;16639;51.488;0.152;2023-03-01T16:43:16;8.10;99.90
29731;DHT22;16639;51.488;0.152;2023-03-01T16:45:44;8.10;99.90
29731;DHT22;16639;51.488;0.152;2023-03-01T16:48:12;8.10;99.90
29731;DHT22;16639;51.488;0.152;2023-03-01T16:50:40;8.10;99.90
29731;DHT22;16639;51.488;0.152;2023-03-01T16:53:08;8.10;99.90
29731;DHT22;16639;51.488;0.152;2023-03-01T16:55:35;8.10;99.90
29731;DHT22;16639;51.488;0.152;2023-03-01T16:58:03;8.00;99.90
29731;DHT22;16639;51.488;0.152;2023-03-01T17:00:31;8.00;99.90
29731;DHT22;16639;51.488;0.152;2023-03-01T17:02:59;7.60;99.90
29731;DHT22;16639;51.488;0.152;2023-03-01T17:05:27;8.00;99.90
29731;DHT22;16639;51.488;0.152;2023-03-01T17:07:54;8.00;99.90
29731;DHT22;16639;51.488;0.152;2023-03-01T17:10:22;8.00;99.90
29731;DHT22;16639;51.488;0.152;2023-03-01T17:12:50;8.00;99.90
29731;DHT22;16639;51.488;0.152;2023-03-01T17:15:18;7.90;99.90
29731;DHT22;16639;51.488;0.152;2023-03-01T17:17:46;7.90;99.90
29731;DHT22;16639;51.488;0.152;2023-03-01T17:20:18;7.90;99.90
29731;DHT22;16639;51.488;0.152;2023-03-01T17:22:46;7.80;99.90
29731;DHT22;16639;51.488;0.152;2023-03-01T17:25:13;5.80;99.90
29731;DHT22;16639;51.488;0.152;2023-03-01T17:27:42;7.80;99.90
29731;DHT22;16639;51.488;0.152;2023-03-01T17:30:11;7.80;99.90
29731;DHT22;16639;51.488;0.152;2023-03-01T17:32:39;7.80;99.90
29731;DHT22;16639;51.488;0.152;2023-03-01T17:35:07;7.80;99.90
29731;DHT22;16639;51.488;0.152;2023-03-01T17:37:35;7.80;99.90
29731;DHT22;16639;51.488;0.152;2023-03-01T17:40:05;7.80;99.90
29731;DHT22;16639;51.488;0.152;2023-03-01T17:42:33;7.80;99.90
29731;DHT22;16639;51.488;0.152;2023-03-01T17:45:00;7.80;99.90
29731;DHT22;16639;51.488;0.152;2023-03-01T17:47:40;7.90;99.90
29731;DHT22;16639;51.488;0.152;2023-03-01T17:58:30;7.60;99.90
29731;DHT22;16639;51.488;0.152;2023-03-01T18:02:41;7.70;99.90
29731;DHT22;16639;51.488;0.152;2023-03-01T18:06:46;7.70;99.90
29731;DHT22;16639;51.488;0.152;2023-03-01T18:09:26;7.60;99.90
29731;DHT22;16639;51.488;0.152;2023-03-01T18:11:53;7.60;99.90
29731;DHT22;16639;51.488;0.152;2023-03-01T18:14:21;7.60;99.90
29731;DHT22;16639;51.488;0.152;2023-03-01T18:16:48;7.60;99.90
29731;DHT22;16639;51.488;0.152;2023-03-01T18:19:16;7.60;99.90
29731;DHT22;16639;51.488;0.152;2023-03-01T18:21:43;7.60;99.90
29731;DHT22;16639;51.488;0.152;2023-03-01T18:24:11;7.60;99.90
29731;DHT22;16639;51.488;0.152;2023-03-01T18:26:38;7.60;99.90
29731;DHT22;16639;51.488;0.152;2023-03-01T18:29:06;7.60;99.90
29731;DHT22;16639;51.488;0.152;2023-03-01T18:31:34;7.60;99.90
29731;DHT22;16639;51.488;0.152;2023-03-01T18:34:02;7.60;99.90
29731;DHT22;16639;51.488;0.152;2023-03-01T18:36:33;7.60;99.90